createdAt,value
2022-09-07T00:01:00.422Z,19.70
2022-09-07T00:03:28.519Z,19.80
2022-09-07T00:05:56.804Z,19.80
2022-09-07T00:08:27.211Z,19.80
2022-09-07T00:10:58.011Z,19.90
2022-09-07T00:13:28.728Z,19.80
2022-09-07T00:15:58.242Z,19.80
2022-09-07T00:18:27.029Z,19.80
2022-09-07T00:21:02.560Z,19.80
2022-09-07T00:23:32.138Z,19.90
2022-09-07T00:26:01.599Z,19.90
2022-09-07T00:28:30.265Z,20.10
2022-09-07T00:30:59.780Z,20.10
2022-09-07T00:33:28.480Z,20.20
2022-09-07T00:35:58.558Z,20.10
2022-09-07T00:38:26.652Z,20.20
2022-09-07T00:40:54.682Z,20.20
2022-09-07T00:43:32.286Z,20.20
2022-09-07T00:46:01.954Z,20.20
2022-09-07T00:48:34.729Z,20.20
2022-09-07T00:51:06.199Z,20.20
2022-09-07T00:53:38.182Z,20.10
2022-09-07T00:56:07.451Z,20.10
2022-09-07T00:58:38.056Z,20.10
2022-09-07T01:01:09.695Z,20.10
2022-09-07T01:03:42.592Z,20.10
2022-09-07T01:06:16.236Z,20.00
2022-09-07T01:08:44.873Z,20.00
2022-09-07T01:11:13.270Z,20.00
2022-09-07T01:13:43.399Z,20.10
2022-09-07T01:16:19.262Z,20.10
2022-09-07T01:19:07.064Z,20.20
2022-09-07T01:21:50.357Z,20.30
2022-09-07T01:24:39.927Z,20.30
2022-09-07T01:27:58.298Z,20.40
2022-09-07T01:30:26.828Z,20.50
2022-09-07T01:33:10.508Z,20.60
2022-09-07T01:35:44.749Z,20.60
2022-09-07T01:38:18.706Z,20.70
2022-09-07T01:40:53.200Z,20.70
2022-09-07T01:43:33.013Z,20.70
2022-09-07T01:46:05.377Z,20.80
2022-09-07T01:48:35.789Z,20.80
2022-09-07T01:51:05.199Z,20.80
2022-09-07T01:53:37.377Z,20.80
2022-09-07T01:56:10.000Z,20.80
2022-09-07T01:58:44.223Z,20.80
2022-09-07T02:01:15.476Z,20.80
2022-09-07T02:03:47.233Z,20.80
2022-09-07T02:06:21.399Z,20.70
2022-09-07T02:08:56.893Z,20.70
2022-09-07T02:11:30.320Z,20.70
2022-09-07T02:14:03.445Z,20.70
2022-09-07T02:16:33.463Z,20.70
2022-09-07T02:19:05.232Z,20.60
2022-09-07T02:21:37.383Z,20.70
2022-09-07T02:24:10.188Z,20.70
2022-09-07T02:26:40.811Z,20.70
2022-09-07T02:29:10.387Z,20.70
2022-09-07T02:31:38.499Z,20.60
2022-09-07T02:34:06.880Z,20.60
2022-09-07T02:36:39.449Z,20.60
2022-09-07T02:39:07.485Z,20.60
2022-09-07T02:41:39.210Z,20.60
2022-09-07T02:44:12.222Z,20.60
2022-09-07T02:47:04.590Z,20.60
2022-09-07T02:49:52.195Z,20.70
2022-09-07T02:52:29.560Z,20.80
2022-09-07T02:55:10.910Z,20.80
2022-09-07T02:57:47.684Z,20.80
2022-09-07T03:00:20.902Z,20.70
2022-09-07T03:02:58.006Z,20.60
2022-09-07T03:05:34.337Z,20.60
2022-09-07T03:08:05.310Z,20.40
2022-09-07T03:10:34.128Z,20.30
2022-09-07T03:13:02.116Z,20.30
2022-09-07T03:15:31.874Z,20.40
2022-09-07T03:18:00.177Z,20.30
2022-09-07T03:20:28.211Z,20.30
2022-09-07T03:22:56.172Z,20.20
2022-09-07T03:25:24.208Z,20.00
2022-09-07T03:27:52.317Z,19.90
2022-09-07T03:30:20.560Z,19.80
2022-09-07T03:32:49.850Z,19.80
2022-09-07T03:35:18.318Z,19.80
2022-09-07T03:37:46.470Z,19.70
2022-09-07T03:40:16.196Z,19.70
2022-09-07T03:42:44.500Z,19.50
2022-09-07T03:45:12.772Z,19.30
2022-09-07T03:47:41.096Z,19.20
2022-09-07T03:50:11.036Z,19.10
2022-09-07T03:52:39.602Z,19.00
2022-09-07T03:55:08.379Z,18.90
2022-09-07T03:57:36.406Z,18.70
2022-09-07T04:00:06.257Z,18.60
2022-09-07T04:02:34.233Z,18.60
2022-09-07T04:05:02.199Z,18.60
2022-09-07T04:07:31.519Z,18.70
2022-09-07T04:09:59.506Z,18.80
2022-09-07T04:12:27.467Z,19.00
2022-09-07T04:14:55.725Z,19.10
2022-09-07T04:17:23.665Z,19.20
2022-09-07T04:19:52.309Z,19.10
2022-09-07T04:22:20.275Z,19.00
2022-09-07T04:24:50.183Z,18.90
2022-09-07T04:27:18.152Z,18.90
2022-09-07T04:29:46.187Z,18.80
2022-09-07T04:32:15.938Z,18.80
2022-09-07T04:34:44.150Z,18.80
2022-09-07T04:37:12.530Z,18.80
2022-09-07T04:39:40.564Z,18.90
2022-09-07T04:42:09.964Z,18.80
2022-09-07T04:44:37.991Z,18.80
2022-09-07T04:47:06.211Z,18.80
2022-09-07T04:49:34.232Z,18.70
2022-09-07T04:52:02.258Z,18.60
2022-09-07T04:54:30.564Z,18.50
2022-09-07T04:56:58.502Z,18.50
2022-09-07T04:59:27.875Z,18.40
2022-09-07T05:01:55.884Z,18.30
2022-09-07T05:04:23.920Z,18.30
2022-09-07T05:06:53.651Z,18.40
2022-09-07T05:09:21.639Z,18.50
2022-09-07T05:11:49.684Z,18.60
2022-09-07T05:14:18.063Z,18.50
2022-09-07T05:16:47.475Z,18.50
2022-09-07T05:19:16.058Z,18.40
2022-09-07T05:21:44.086Z,18.30
2022-09-07T05:24:12.062Z,18.30
2022-09-07T05:26:40.234Z,18.30
2022-09-07T05:31:58.572Z,18.30
2022-09-07T05:37:00.013Z,18.50
2022-09-07T05:39:28.549Z,18.60
2022-09-07T05:41:57.182Z,18.70
2022-09-07T05:47:15.829Z,19.30
2022-09-07T05:49:44.293Z,19.50
2022-09-07T05:52:12.260Z,19.70
2022-09-07T05:54:40.299Z,19.70
2022-09-07T05:57:08.732Z,19.80
2022-09-07T05:59:36.784Z,20.10
2022-09-07T06:02:05.268Z,20.20
2022-09-07T06:04:34.738Z,20.30
2022-09-07T06:07:21.110Z,20.40
2022-09-07T06:12:38.156Z,20.80
2022-09-07T06:15:07.010Z,21.00
2022-09-07T06:17:35.345Z,21.50
2022-09-07T06:20:05.631Z,21.80
2022-09-07T06:22:35.822Z,22.00
2022-09-07T06:25:04.006Z,22.00
2022-09-07T06:27:32.025Z,22.10
2022-09-07T06:29:59.975Z,22.20
2022-09-07T06:32:43.564Z,22.10
2022-09-07T06:35:14.552Z,22.10
2022-09-07T06:37:42.649Z,22.10
2022-09-07T06:40:12.019Z,22.20
2022-09-07T06:42:40.173Z,22.40
2022-09-07T06:45:10.964Z,22.70
2022-09-07T06:47:39.026Z,22.80
2022-09-07T06:50:07.791Z,22.90
2022-09-07T06:55:27.598Z,23.30
2022-09-07T06:57:55.667Z,23.60
2022-09-07T07:00:23.830Z,23.50
2022-09-07T07:02:51.982Z,23.40
2022-09-07T07:05:20.047Z,23.40
2022-09-07T07:07:49.373Z,23.30
2022-09-07T07:10:22.125Z,23.30
2022-09-07T07:12:56.679Z,23.50
2022-09-07T07:15:28.003Z,24.10
2022-09-07T07:17:59.181Z,25.00
2022-09-07T07:20:33.377Z,25.70
2022-09-07T07:23:02.713Z,27.10
2022-09-07T07:25:30.809Z,28.50
2022-09-07T07:30:46.858Z,28.40
2022-09-07T07:33:14.870Z,28.40
2022-09-07T07:35:42.873Z,29.90
2022-09-07T07:43:48.394Z,30.10
2022-09-07T07:46:17.365Z,30.90
2022-09-07T07:48:49.255Z,31.30
2022-09-07T07:51:17.222Z,31.00
2022-09-07T07:53:46.917Z,30.40
2022-09-07T07:56:15.145Z,31.40
2022-09-07T07:58:46.692Z,31.60
2022-09-07T08:01:16.615Z,32.00
2022-09-07T08:03:46.809Z,32.00
2022-09-07T08:06:17.314Z,32.30
2022-09-07T08:08:46.899Z,32.50
2022-09-07T08:11:17.160Z,31.70
2022-09-07T08:13:46.347Z,31.40
2022-09-07T08:16:15.277Z,29.20
2022-09-07T08:18:46.982Z,30.50
2022-09-07T08:21:16.841Z,31.60
2022-09-07T08:23:46.159Z,32.40
2022-09-07T08:26:14.164Z,31.90
2022-09-07T08:28:43.886Z,33.00
2022-09-07T08:31:14.009Z,33.00
2022-09-07T08:33:42.615Z,33.60
2022-09-07T08:36:13.392Z,34.10
2022-09-07T08:38:41.844Z,34.60
2022-09-07T08:41:41.595Z,34.50
2022-09-07T08:44:13.912Z,33.70
2022-09-07T08:46:46.345Z,31.60
2022-09-07T08:49:18.789Z,31.30
2022-09-07T08:51:50.705Z,31.00
2022-09-07T08:54:18.981Z,30.90
2022-09-07T08:59:46.854Z,32.20
2022-09-07T09:02:38.345Z,32.20
2022-09-07T09:05:16.979Z,32.70
2022-09-07T09:07:56.183Z,32.90
2022-09-07T09:10:34.416Z,32.10
2022-09-07T09:13:12.167Z,30.80
2022-09-07T09:15:52.934Z,32.90
2022-09-07T09:18:32.572Z,33.80
2022-09-07T09:21:01.463Z,31.70
2022-09-07T09:23:38.198Z,29.40
2022-09-07T09:26:11.908Z,28.60
2022-09-07T09:28:41.498Z,28.50
2022-09-07T09:31:18.477Z,28.20
2022-09-07T09:34:11.115Z,27.70
2022-09-07T09:36:44.799Z,29.20
2022-09-07T09:39:30.512Z,31.30
2022-09-07T09:42:01.378Z,32.10
2022-09-07T09:44:35.086Z,31.30
2022-09-07T09:49:53.552Z,28.30
2022-09-07T09:52:32.792Z,27.50
2022-09-07T09:55:32.665Z,26.80
2022-09-07T10:04:01.496Z,27.00
2022-09-07T10:06:33.104Z,29.90
2022-09-07T10:09:02.817Z,31.00
2022-09-07T10:14:36.277Z,28.90
2022-09-07T10:17:15.042Z,27.60
2022-09-07T10:19:44.585Z,27.30
2022-09-07T10:22:26.089Z,28.20
2022-09-07T10:24:54.044Z,29.20
2022-09-07T10:27:31.058Z,28.80
2022-09-07T10:29:59.457Z,28.00
2022-09-07T10:32:48.595Z,27.60
2022-09-07T10:35:22.275Z,27.20
2022-09-07T10:38:03.979Z,27.00
2022-09-07T10:40:35.604Z,27.10
2022-09-07T10:43:22.782Z,27.20
2022-09-07T10:46:08.821Z,27.20
2022-09-07T10:48:46.108Z,27.10
2022-09-07T10:51:19.059Z,26.80
2022-09-07T10:56:53.128Z,26.60
2022-09-07T11:02:33.441Z,26.70
2022-09-07T11:05:14.449Z,26.60
2022-09-07T11:08:00.412Z,26.50
2022-09-07T11:10:38.585Z,26.40
2022-09-07T11:13:09.215Z,26.80
2022-09-07T11:15:43.857Z,27.80
2022-09-07T11:18:17.205Z,28.70
2022-09-07T11:20:54.898Z,28.80
2022-09-07T11:23:29.355Z,29.00
2022-09-07T11:26:05.026Z,29.30
2022-09-07T11:28:44.734Z,29.90
2022-09-07T11:31:20.985Z,29.40
2022-09-07T11:36:51.836Z,29.80
2022-09-07T11:39:26.194Z,31.00
2022-09-07T11:42:01.398Z,31.90
2022-09-07T11:44:40.833Z,32.00
2022-09-07T11:47:13.714Z,32.10
2022-09-07T11:49:41.638Z,31.50
2022-09-07T11:52:19.105Z,33.00
2022-09-07T11:54:52.822Z,32.30
2022-09-07T11:57:45.893Z,33.20
2022-09-07T12:00:19.118Z,33.70
2022-09-07T12:03:15.240Z,32.10
2022-09-07T12:06:11.193Z,30.70
2022-09-07T12:09:06.972Z,30.60
2022-09-07T12:12:08.112Z,30.50
2022-09-07T12:14:45.729Z,31.00
2022-09-07T12:17:25.879Z,32.30
2022-09-07T12:20:14.281Z,33.20
2022-09-07T12:23:03.671Z,34.10
2022-09-07T12:25:35.402Z,33.70
2022-09-07T12:28:03.624Z,31.50
2022-09-07T12:30:57.016Z,30.30
2022-09-07T12:33:31.576Z,29.10
2022-09-07T12:36:00.967Z,28.70
2022-09-07T12:39:20.721Z,28.80
2022-09-07T12:44:40.790Z,31.10
2022-09-07T12:47:29.105Z,32.60
2022-09-07T12:50:10.763Z,33.00
2022-09-07T12:53:22.634Z,33.50
2022-09-07T12:56:20.503Z,34.10
2022-09-07T12:59:01.612Z,34.40
2022-09-07T13:01:44.164Z,33.50
2022-09-07T13:04:23.915Z,32.90
2022-09-07T13:07:06.862Z,32.80
2022-09-07T13:09:36.165Z,33.00
2022-09-07T13:15:40.743Z,31.30
2022-09-07T13:18:12.591Z,31.70
2022-09-07T13:20:41.647Z,32.60
2022-09-07T13:23:25.560Z,33.20
2022-09-07T13:26:01.616Z,33.20
2022-09-07T13:28:37.959Z,33.40
2022-09-07T13:31:38.769Z,33.70
2022-09-07T13:34:37.458Z,33.40
2022-09-07T13:37:07.393Z,33.50
2022-09-07T13:39:41.781Z,32.60
2022-09-07T13:42:17.233Z,31.30
2022-09-07T13:44:54.079Z,31.60
2022-09-07T13:47:32.425Z,31.50
2022-09-07T13:50:16.708Z,31.40
2022-09-07T13:53:13.221Z,30.90
2022-09-07T13:55:52.153Z,30.50
2022-09-07T13:58:22.280Z,30.70
2022-09-07T14:00:54.607Z,31.00
2022-09-07T14:03:24.919Z,31.70
2022-09-07T14:06:15.698Z,32.20
2022-09-07T14:08:48.575Z,32.50
2022-09-07T14:11:20.810Z,33.00
2022-09-07T14:14:14.093Z,32.80
2022-09-07T14:16:45.514Z,32.20
2022-09-07T14:19:19.226Z,32.60
2022-09-07T14:21:57.154Z,32.40
2022-09-07T14:24:31.116Z,31.50
2022-09-07T14:27:00.110Z,31.20
2022-09-07T14:29:33.708Z,30.90
2022-09-07T14:32:03.537Z,31.30
2022-09-07T14:34:34.853Z,31.20
2022-09-07T14:37:08.636Z,30.80
2022-09-07T14:39:41.762Z,30.50
2022-09-07T14:42:13.080Z,30.30
2022-09-07T14:44:43.306Z,29.80
2022-09-07T14:47:24.394Z,29.60
2022-09-07T14:49:53.155Z,29.20
2022-09-07T14:52:27.294Z,28.90
2022-09-07T14:54:55.315Z,29.20
2022-09-07T14:57:30.292Z,29.40
2022-09-07T14:59:58.889Z,29.40
2022-09-07T15:02:34.635Z,29.60
2022-09-07T15:05:27.229Z,29.50
2022-09-07T15:07:59.336Z,29.40
2022-09-07T15:10:35.250Z,29.40
2022-09-07T15:13:06.160Z,29.60
2022-09-07T15:15:37.322Z,29.60
2022-09-07T15:18:09.102Z,29.20
2022-09-07T15:20:43.235Z,28.70
2022-09-07T15:23:14.724Z,28.60
2022-09-07T15:25:48.155Z,28.50
2022-09-07T15:34:02.597Z,28.20
2022-09-07T15:36:32.007Z,28.10
2022-09-07T15:39:03.027Z,28.10
2022-09-07T15:41:31.405Z,28.10
2022-09-07T15:44:00.084Z,28.10
2022-09-07T15:46:28.510Z,27.90
2022-09-07T15:48:57.216Z,27.80
2022-09-07T15:54:16.468Z,27.50
2022-09-07T15:57:48.358Z,27.50
2022-09-07T15:59:32.881Z,27.40
2022-09-07T16:02:01.066Z,27.40
2022-09-07T16:04:30.168Z,27.50
2022-09-07T16:07:01.718Z,27.50
2022-09-07T16:09:31.089Z,27.80
2022-09-07T16:13:00.112Z,28.20
2022-09-07T16:14:46.990Z,28.00
2022-09-07T16:20:03.330Z,28.50
2022-09-07T16:25:21.593Z,28.30
2022-09-07T16:27:50.044Z,27.90
2022-09-07T16:30:18.284Z,27.40
2022-09-07T16:32:46.355Z,26.90
2022-09-07T16:35:14.570Z,26.80
2022-09-07T16:40:31.997Z,26.50
2022-09-07T16:43:02.177Z,26.30
2022-09-07T16:48:18.069Z,26.10
2022-09-07T16:51:00.573Z,25.90
2022-09-07T16:53:29.955Z,25.90
2022-09-07T16:56:03.204Z,25.80
2022-09-07T16:58:35.787Z,25.80
2022-09-07T17:01:04.877Z,25.70
2022-09-07T17:03:33.015Z,25.60
2022-09-07T17:06:01.943Z,25.50
2022-09-07T17:08:30.255Z,25.30
2022-09-07T17:11:00.668Z,25.30
2022-09-07T17:13:31.820Z,25.20
2022-09-07T17:16:03.488Z,25.10
2022-09-07T17:21:20.194Z,24.90
2022-09-07T17:23:54.707Z,24.80
2022-09-07T17:26:26.831Z,24.80
2022-09-07T17:29:00.178Z,24.70
2022-09-07T17:34:18.649Z,24.60
2022-09-07T17:36:46.686Z,24.50
2022-09-07T17:39:17.097Z,24.40
2022-09-07T17:41:46.313Z,24.40
2022-09-07T17:44:16.068Z,24.40
2022-09-07T17:46:44.500Z,24.40
2022-09-07T17:49:14.348Z,24.40
2022-09-07T17:51:42.337Z,24.50
2022-09-07T17:54:13.746Z,24.50
2022-09-07T17:56:42.639Z,24.50
2022-09-07T18:02:00.994Z,24.50
2022-09-07T18:04:29.353Z,24.40
2022-09-07T18:06:57.621Z,24.40
2022-09-07T18:09:25.567Z,24.30
2022-09-07T18:11:53.549Z,24.30
2022-09-07T18:14:21.568Z,24.10
2022-09-07T18:16:51.055Z,23.80
2022-09-07T18:19:20.788Z,23.40
2022-09-07T18:21:50.641Z,22.80
2022-09-07T18:24:22.195Z,22.10
2022-09-07T18:26:52.793Z,21.40
2022-09-07T18:29:37.652Z,20.80
2022-09-07T18:32:09.835Z,20.60
2022-09-07T18:34:41.311Z,20.50
2022-09-07T18:37:11.943Z,20.10
2022-09-07T18:39:40.844Z,20.00
2022-09-07T18:42:09.887Z,19.90
2022-09-07T18:47:28.715Z,19.80
2022-09-07T18:49:58.989Z,20.00
2022-09-07T18:55:16.118Z,20.30
2022-09-07T18:57:45.073Z,20.40
2022-09-07T19:00:17.793Z,20.50
2022-09-07T19:02:49.831Z,20.40
2022-09-07T19:08:08.516Z,20.30
2022-09-07T19:10:37.843Z,20.60
2022-09-07T19:13:05.840Z,20.70
2022-09-07T19:15:38.029Z,20.70
2022-09-07T19:18:07.920Z,20.60
2022-09-07T19:20:37.746Z,20.70
2022-09-07T19:23:06.434Z,20.70
2022-09-07T19:25:34.373Z,20.60
2022-09-07T19:28:02.417Z,20.70
2022-09-07T19:30:30.431Z,20.70
2022-09-07T19:33:02.131Z,20.70
2022-09-07T19:35:37.640Z,20.60
2022-09-07T19:38:05.864Z,20.60
2022-09-07T19:40:34.030Z,20.70
2022-09-07T19:43:02.042Z,20.70
2022-09-07T19:45:30.144Z,20.60
2022-09-07T19:47:58.246Z,20.60
2022-09-07T19:50:26.293Z,20.60
2022-09-07T19:52:55.708Z,20.50
2022-09-07T19:55:23.650Z,20.50
2022-09-07T19:57:52.407Z,20.40
2022-09-07T20:00:20.422Z,20.30
2022-09-07T20:02:49.908Z,20.30
2022-09-07T20:05:18.196Z,20.30
2022-09-07T20:07:46.168Z,20.30
2022-09-07T20:10:15.554Z,20.20
2022-09-07T20:12:43.541Z,20.30
2022-09-07T20:15:11.711Z,20.30
2022-09-07T20:17:39.719Z,20.30
2022-09-07T20:20:08.775Z,20.20
2022-09-07T20:22:36.712Z,20.40
2022-09-07T20:25:05.111Z,20.30
2022-09-07T20:27:35.812Z,20.30
2022-09-07T20:30:04.075Z,20.30
2022-09-07T20:32:32.101Z,20.30
2022-09-07T20:35:01.416Z,20.30
2022-09-07T20:37:29.535Z,20.30
2022-09-07T20:39:57.521Z,20.40
2022-09-07T20:42:25.527Z,20.30
2022-09-07T20:44:54.896Z,20.30
2022-09-07T20:47:23.923Z,20.30
2022-09-07T20:49:52.486Z,20.20
2022-09-07T20:52:20.596Z,20.20
2022-09-07T20:54:48.680Z,20.20
2022-09-07T20:57:16.655Z,20.20
2022-09-07T20:59:44.609Z,20.10
2022-09-07T21:02:14.006Z,20.00
2022-09-07T21:04:45.051Z,20.00
2022-09-07T21:07:13.061Z,20.00
2022-09-07T21:09:41.039Z,20.00
2022-09-07T21:12:09.291Z,20.00
2022-09-07T21:14:37.373Z,19.80
2022-09-07T21:17:05.675Z,19.80
2022-09-07T21:19:36.817Z,19.70
2022-09-07T21:22:04.834Z,19.60
2022-09-07T21:24:32.911Z,19.70
2022-09-07T21:27:01.011Z,19.70
2022-09-07T21:29:28.983Z,19.80
2022-09-07T21:31:57.257Z,19.80
2022-09-07T21:34:25.383Z,19.90
2022-09-07T21:36:54.792Z,20.00
2022-09-07T21:39:23.082Z,20.00
2022-09-07T21:41:52.278Z,20.00
2022-09-07T21:44:20.620Z,20.00
2022-09-07T21:46:48.686Z,20.00
2022-09-07T21:49:16.675Z,20.10
2022-09-07T21:51:44.709Z,20.00
2022-09-07T21:54:14.055Z,20.20
2022-09-07T21:56:46.514Z,20.10
2022-09-07T21:59:15.129Z,20.10
2022-09-07T22:01:43.182Z,20.20
2022-09-07T22:04:13.779Z,20.20
2022-09-07T22:06:45.248Z,20.30
2022-09-07T22:09:14.704Z,20.30
2022-09-07T22:11:45.873Z,20.20
2022-09-07T22:14:15.752Z,20.20
2022-09-07T22:16:43.891Z,20.10
2022-09-07T22:19:11.866Z,20.00
2022-09-07T22:21:39.857Z,19.90
2022-09-07T22:24:08.383Z,19.80
2022-09-07T22:26:38.657Z,19.90
2022-09-07T22:29:07.873Z,19.80
2022-09-07T22:31:38.794Z,19.80
2022-09-07T22:34:08.997Z,19.80
2022-09-07T22:36:38.730Z,19.90
2022-09-07T22:39:09.816Z,19.90
2022-09-07T22:41:41.653Z,20.10
2022-09-07T22:44:13.065Z,20.10
2022-09-07T22:46:43.479Z,20.20
2022-09-07T22:49:12.907Z,20.20
2022-09-07T22:51:40.973Z,20.20
2022-09-07T22:54:09.557Z,20.20
2022-09-07T22:56:38.322Z,20.10
2022-09-07T22:59:10.244Z,20.10
2022-09-07T23:01:38.403Z,20.00
2022-09-07T23:04:07.141Z,20.00
2022-09-07T23:06:38.470Z,20.00
2022-09-07T23:09:08.907Z,20.00
2022-09-07T23:11:37.002Z,19.90
2022-09-07T23:14:09.493Z,19.90
2022-09-07T23:16:37.594Z,19.70
2022-09-07T23:19:05.630Z,19.70
2022-09-07T23:21:34.046Z,19.50
2022-09-07T23:24:02.559Z,19.40
2022-09-07T23:26:31.896Z,19.20
2022-09-07T23:29:02.022Z,19.10
2022-09-07T23:31:36.874Z,18.90
2022-09-07T23:34:05.446Z,18.90
2022-09-07T23:36:33.924Z,18.90
2022-09-07T23:39:02.088Z,18.80
2022-09-07T23:41:30.298Z,18.80
2022-09-07T23:44:00.433Z,18.80
2022-09-07T23:46:28.475Z,18.70
2022-09-07T23:48:57.782Z,18.60
2022-09-07T23:51:25.739Z,18.60
2022-09-07T23:53:54.184Z,18.60
2022-09-07T23:56:24.319Z,18.70
2022-09-07T23:58:52.737Z,18.60
